createdAt,value
2023-02-25T00:01:57.786Z,17.53
2023-02-25T00:04:33.156Z,11.93
2023-02-25T00:07:01.887Z,9.43
2023-02-25T00:09:30.928Z,14.70
2023-02-25T00:11:59.649Z,13.50
2023-02-25T00:14:28.494Z,18.83
2023-02-25T00:16:57.595Z,9.47
2023-02-25T00:19:27.105Z,10.00
2023-02-25T00:21:56.869Z,10.83
2023-02-25T00:24:25.299Z,8.20
2023-02-25T00:26:53.731Z,7.83
2023-02-25T00:29:22.305Z,8.33
2023-02-25T00:31:50.979Z,4.43
2023-02-25T00:34:19.540Z,10.50
2023-02-25T00:36:48.387Z,4.57
2023-02-25T00:39:18.138Z,5.13
2023-02-25T00:41:46.836Z,44.23
2023-02-25T00:44:15.373Z,19.70
2023-02-25T00:46:43.781Z,14.90
2023-02-25T00:49:16.753Z,16.03
2023-02-25T00:51:49.714Z,13.47
2023-02-25T00:54:20.965Z,22.77
2023-02-25T00:56:49.433Z,19.80
2023-02-25T00:59:17.801Z,28.83
2023-02-25T01:01:46.389Z,21.60
2023-02-25T01:04:16.182Z,20.70
2023-02-25T01:06:44.703Z,20.70
2023-02-25T01:09:14.120Z,18.33
2023-02-25T01:11:45.974Z,22.93
2023-02-25T01:14:16.560Z,18.13
2023-02-25T01:16:46.258Z,10.33
2023-02-25T01:19:17.401Z,7.30
2023-02-25T01:21:48.723Z,12.83
2023-02-25T01:24:21.021Z,18.70
2023-02-25T01:26:53.566Z,22.20
2023-02-25T01:29:24.352Z,13.30
2023-02-25T01:31:53.933Z,9.23
2023-02-25T01:34:23.095Z,45.03
2023-02-25T01:36:51.973Z,17.43
2023-02-25T01:39:21.917Z,16.60
2023-02-25T01:41:55.728Z,16.30
2023-02-25T01:44:29.926Z,11.67
2023-02-25T01:46:58.435Z,9.83
2023-02-25T01:49:31.253Z,9.67
2023-02-25T01:52:04.711Z,10.87
2023-02-25T01:54:35.014Z,10.57
2023-02-25T01:57:09.024Z,9.93
2023-02-25T01:59:39.627Z,10.73
2023-02-25T02:02:09.700Z,13.13
2023-02-25T02:04:39.705Z,13.53
2023-02-25T02:07:09.132Z,12.43
2023-02-25T02:09:40.473Z,12.10
2023-02-25T02:12:10.411Z,7.43
2023-02-25T02:14:42.418Z,9.60
2023-02-25T02:17:20.868Z,10.00
2023-02-25T02:20:11.574Z,7.97
2023-02-25T02:22:59.097Z,7.60
2023-02-25T02:26:10.663Z,11.40
2023-02-25T02:29:19.602Z,6.63
2023-02-25T02:32:01.428Z,10.67
2023-02-25T02:34:41.740Z,5.50
2023-02-25T02:37:24.838Z,5.03
2023-02-25T02:40:01.586Z,5.87
2023-02-25T02:42:38.595Z,5.57
2023-02-25T02:45:14.205Z,5.43
2023-02-25T02:47:47.496Z,5.07
2023-02-25T02:50:23.069Z,6.67
2023-02-25T02:52:53.957Z,6.80
2023-02-25T02:55:28.290Z,6.40
2023-02-25T02:58:03.133Z,4.07
2023-02-25T03:00:38.086Z,6.90
2023-02-25T03:03:14.129Z,6.13
2023-02-25T03:05:46.940Z,4.77
2023-02-25T03:08:22.406Z,5.47
2023-02-25T03:10:51.135Z,3.97
2023-02-25T03:13:20.292Z,6.33
2023-02-25T03:15:51.148Z,7.57
2023-02-25T03:18:25.646Z,6.83
2023-02-25T03:20:57.448Z,10.63
2023-02-25T03:23:32.341Z,5.13
2023-02-25T03:26:10.620Z,4.47
2023-02-25T03:28:39.906Z,4.10
2023-02-25T03:31:15.285Z,6.43
2023-02-25T03:33:49.102Z,6.73
2023-02-25T03:36:22.670Z,4.40
2023-02-25T03:38:59.207Z,7.87
2023-02-25T03:41:35.755Z,8.23
2023-02-25T03:44:08.218Z,8.57
2023-02-25T03:46:37.995Z,4.73
2023-02-25T03:49:11.593Z,6.43
2023-02-25T03:51:43.129Z,5.43
2023-02-25T03:54:11.680Z,5.43
2023-02-25T03:56:45.599Z,5.43
2023-02-25T03:59:14.676Z,8.07
2023-02-25T04:01:44.897Z,6.97
2023-02-25T04:04:14.829Z,8.73
2023-02-25T04:06:43.355Z,7.40
2023-02-25T04:09:11.776Z,9.27
2023-02-25T04:11:40.241Z,9.27
2023-02-25T04:14:09.478Z,8.60
2023-02-25T04:16:38.299Z,10.30
2023-02-25T04:19:06.807Z,6.43
2023-02-25T04:21:39.425Z,7.87
2023-02-25T04:24:08.921Z,8.50
2023-02-25T04:26:37.692Z,8.40
2023-02-25T04:29:06.425Z,7.80
2023-02-25T04:31:35.025Z,13.27
2023-02-25T04:34:03.553Z,8.30
2023-02-25T04:36:34.226Z,9.83
2023-02-25T04:39:06.790Z,10.23
2023-02-25T04:41:37.057Z,9.63
2023-02-25T04:44:06.463Z,12.63
2023-02-25T04:46:36.850Z,9.70
2023-02-25T04:49:06.371Z,11.60
2023-02-25T04:51:35.638Z,10.67
2023-02-25T04:54:05.882Z,10.27
2023-02-25T04:56:34.249Z,13.20
2023-02-25T04:59:02.681Z,15.53
2023-02-25T05:01:32.746Z,7.87
2023-02-25T05:04:02.157Z,11.50
2023-02-25T05:06:31.584Z,9.50
2023-02-25T05:09:00.837Z,9.33
2023-02-25T05:11:30.962Z,10.90
2023-02-25T05:13:59.466Z,12.07
2023-02-25T05:16:29.098Z,10.33
2023-02-25T05:18:57.910Z,10.93
2023-02-25T05:21:27.976Z,12.53
2023-02-25T05:23:56.463Z,10.33
2023-02-25T05:26:26.395Z,11.90
2023-02-25T05:28:58.292Z,14.53
2023-02-25T05:31:27.403Z,8.97
2023-02-25T05:33:55.846Z,9.53
2023-02-25T05:36:27.834Z,8.70
2023-02-25T05:38:58.990Z,11.70
2023-02-25T05:41:28.193Z,8.10
2023-02-25T05:43:58.373Z,14.73
2023-02-25T05:46:27.707Z,11.47
2023-02-25T05:48:56.402Z,8.57
2023-02-25T05:51:24.895Z,7.43
2023-02-25T05:53:53.846Z,8.13
2023-02-25T05:56:24.108Z,11.93
2023-02-25T05:58:53.187Z,12.13
2023-02-25T06:01:25.153Z,12.00
2023-02-25T06:03:53.686Z,11.67
2023-02-25T06:06:24.469Z,10.77
2023-02-25T06:08:53.291Z,10.13
2023-02-25T06:11:23.718Z,8.50
2023-02-25T06:13:53.199Z,8.40
2023-02-25T06:16:26.007Z,9.83
2023-02-25T06:18:54.724Z,10.83
2023-02-25T06:21:23.050Z,11.03
2023-02-25T06:23:51.715Z,5.73
2023-02-25T06:26:20.096Z,8.37
2023-02-25T06:28:48.749Z,9.13
2023-02-25T06:31:19.184Z,11.53
2023-02-25T06:33:50.826Z,9.10
2023-02-25T06:36:21.845Z,6.03
2023-02-25T06:38:50.480Z,10.53
2023-02-25T06:41:21.434Z,9.60
2023-02-25T06:43:52.601Z,6.13
2023-02-25T06:46:23.554Z,8.53
2023-02-25T06:48:53.606Z,6.03
2023-02-25T06:51:21.999Z,6.33
2023-02-25T06:53:51.296Z,8.43
2023-02-25T06:56:20.396Z,7.13
2023-02-25T06:58:49.279Z,7.93
2023-02-25T07:01:18.225Z,9.90
2023-02-25T07:03:46.606Z,9.77
2023-02-25T07:06:16.466Z,8.67
2023-02-25T07:08:45.253Z,10.20
2023-02-25T07:11:16.074Z,7.33
2023-02-25T07:13:45.898Z,8.40
2023-02-25T07:16:15.660Z,8.87
2023-02-25T07:18:44.913Z,13.03
2023-02-25T07:21:13.834Z,7.63
2023-02-25T07:23:44.185Z,10.80
2023-02-25T07:26:14.756Z,7.43
2023-02-25T07:28:44.251Z,8.93
2023-02-25T07:31:14.664Z,7.47
2023-02-25T07:33:43.142Z,8.33
2023-02-25T07:36:12.498Z,5.67
2023-02-25T07:38:41.406Z,7.20
2023-02-25T07:41:12.810Z,10.57
2023-02-25T07:43:41.910Z,6.73
2023-02-25T07:46:11.608Z,7.17
2023-02-25T07:48:40.193Z,6.43
2023-02-25T07:51:10.287Z,7.80
2023-02-25T07:53:39.340Z,6.70
2023-02-25T07:56:08.612Z,8.43
2023-02-25T07:58:38.904Z,7.20
2023-02-25T08:01:09.453Z,9.77
2023-02-25T08:03:38.489Z,7.13
2023-02-25T08:06:09.260Z,6.83
2023-02-25T08:08:38.315Z,7.33
2023-02-25T08:11:07.765Z,8.00
2023-02-25T08:13:38.252Z,6.07
2023-02-25T08:16:07.275Z,7.87
2023-02-25T08:18:36.497Z,16.80
2023-02-25T08:21:06.630Z,28.30
2023-02-25T08:23:35.064Z,63.80
2023-02-25T08:26:04.348Z,12.97
2023-02-25T08:28:35.951Z,10.67
2023-02-25T08:31:08.800Z,6.63
2023-02-25T08:33:37.284Z,7.87
2023-02-25T08:36:10.793Z,4.33
2023-02-25T08:38:39.973Z,6.43
2023-02-25T08:41:08.965Z,6.40
2023-02-25T08:43:38.353Z,5.50
2023-02-25T08:46:08.891Z,8.50
2023-02-25T08:48:38.030Z,8.57
2023-02-25T08:51:08.766Z,4.63
2023-02-25T08:53:38.964Z,6.30
2023-02-25T08:56:07.847Z,5.67
2023-02-25T08:58:37.050Z,7.90
2023-02-25T09:01:13.201Z,5.83
2023-02-25T09:03:53.064Z,18.77
2023-02-25T09:06:23.593Z,7.13
2023-02-25T09:08:53.223Z,12.23
2023-02-25T09:11:23.229Z,8.23
2023-02-25T09:13:51.804Z,6.20
2023-02-25T09:16:22.296Z,4.10
2023-02-25T09:18:52.613Z,7.60
2023-02-25T09:21:21.495Z,7.43
2023-02-25T09:23:51.456Z,6.13
2023-02-25T09:26:21.308Z,3.93
2023-02-25T09:28:49.855Z,5.70
2023-02-25T09:31:18.990Z,4.70
2023-02-25T09:33:48.926Z,7.20
2023-02-25T09:36:19.672Z,6.57
2023-02-25T09:38:50.316Z,3.83
2023-02-25T09:41:29.330Z,4.30
2023-02-25T09:44:06.983Z,4.67
2023-02-25T09:46:41.522Z,5.37
2023-02-25T09:49:19.637Z,5.23
2023-02-25T09:51:55.076Z,3.03
2023-02-25T09:54:30.378Z,5.27
2023-02-25T09:57:02.440Z,3.40
2023-02-25T09:59:31.880Z,3.90
2023-02-25T10:02:04.843Z,5.57
2023-02-25T10:04:43.084Z,2.93
2023-02-25T10:07:22.636Z,3.70
2023-02-25T10:10:00.274Z,5.57
2023-02-25T10:12:36.157Z,4.23
2023-02-25T10:15:28.748Z,4.10
2023-02-25T10:18:13.056Z,3.67
2023-02-25T10:20:59.960Z,3.13
2023-02-25T10:23:46.777Z,2.93
2023-02-25T10:26:20.658Z,2.47
2023-02-25T10:28:54.004Z,4.30
2023-02-25T10:31:24.385Z,3.77
2023-02-25T10:33:54.449Z,2.63
2023-02-25T10:36:29.229Z,3.47
2023-02-25T10:38:57.980Z,3.93
2023-02-25T10:41:27.265Z,2.97
2023-02-25T10:43:56.857Z,3.57
2023-02-25T10:46:32.697Z,2.17
2023-02-25T10:49:02.934Z,4.80
2023-02-25T10:51:32.772Z,4.57
2023-02-25T10:54:06.529Z,6.23
2023-02-25T10:56:42.756Z,3.20
2023-02-25T10:59:30.176Z,2.73
2023-02-25T11:02:01.530Z,2.73
2023-02-25T11:04:35.058Z,3.37
2023-02-25T11:07:25.936Z,5.43
2023-02-25T11:10:09.356Z,2.63
2023-02-25T11:12:43.665Z,2.43
2023-02-25T11:15:44.349Z,3.53
2023-02-25T11:18:23.094Z,2.07
2023-02-25T11:20:55.312Z,3.53
2023-02-25T11:23:31.391Z,4.10
2023-02-25T11:26:00.591Z,5.13
2023-02-25T11:28:34.138Z,2.93
2023-02-25T11:31:13.337Z,2.07
2023-02-25T11:33:45.518Z,2.63
2023-02-25T11:36:14.482Z,3.37
2023-02-25T11:38:44.593Z,3.93
2023-02-25T11:41:19.785Z,2.10
2023-02-25T11:43:48.972Z,2.30
2023-02-25T11:46:24.002Z,2.43
2023-02-25T11:48:56.073Z,4.07
2023-02-25T11:51:30.734Z,2.77
2023-02-25T11:54:19.036Z,2.53
2023-02-25T11:56:52.304Z,2.40
2023-02-25T11:59:32.726Z,3.10
2023-02-25T12:02:21.911Z,2.13
2023-02-25T12:05:27.383Z,3.87
2023-02-25T12:08:30.562Z,2.50
2023-02-25T12:11:31.662Z,2.83
2023-02-25T12:14:47.166Z,2.20
2023-02-25T12:17:30.969Z,1.97
2023-02-25T12:20:33.385Z,1.83
2023-02-25T12:23:48.934Z,3.93
2023-02-25T12:26:33.802Z,2.73
2023-02-25T12:29:24.624Z,5.33
2023-02-25T12:32:14.277Z,6.67
2023-02-25T12:35:08.931Z,4.07
2023-02-25T12:37:57.580Z,3.87
2023-02-25T12:40:50.951Z,1.53
2023-02-25T12:43:31.592Z,2.07
2023-02-25T12:46:18.171Z,6.30
2023-02-25T12:49:11.848Z,2.10
2023-02-25T12:52:04.850Z,2.17
2023-02-25T12:54:53.635Z,2.23
2023-02-25T12:57:45.764Z,2.43
2023-02-25T13:00:51.237Z,2.50
2023-02-25T13:03:36.448Z,3.20
2023-02-25T13:06:27.899Z,2.77
2023-02-25T13:09:15.292Z,3.47
2023-02-25T13:12:12.736Z,2.90
2023-02-25T13:14:58.722Z,4.63
2023-02-25T13:17:43.964Z,2.77
2023-02-25T13:20:34.377Z,1.87
2023-02-25T13:23:23.310Z,3.37
2023-02-25T13:26:06.970Z,2.00
2023-02-25T13:28:54.087Z,2.00
2023-02-25T13:31:35.172Z,4.50
2023-02-25T13:34:17.425Z,3.03
2023-02-25T13:37:08.678Z,2.43
2023-02-25T13:40:06.170Z,2.80
2023-02-25T13:42:55.000Z,2.33
2023-02-25T13:45:47.165Z,3.50
2023-02-25T13:48:32.332Z,2.10
2023-02-25T13:51:17.430Z,0.97
2023-02-25T13:54:18.613Z,5.70
2023-02-25T13:56:57.375Z,4.00
2023-02-25T13:59:56.872Z,3.80
2023-02-25T14:02:49.838Z,4.50
2023-02-25T14:05:29.466Z,4.60
2023-02-25T14:08:15.662Z,5.33
2023-02-25T14:10:55.682Z,4.60
2023-02-25T14:13:44.517Z,5.53
2023-02-25T14:16:29.417Z,5.63
2023-02-25T14:19:10.414Z,1.67
2023-02-25T14:22:08.111Z,5.07
2023-02-25T14:24:44.292Z,3.03
2023-02-25T14:27:22.158Z,3.17
2023-02-25T14:30:04.185Z,3.80
2023-02-25T14:32:46.389Z,2.27
2023-02-25T14:35:31.390Z,2.90
2023-02-25T14:38:10.035Z,6.93
2023-02-25T14:40:46.475Z,6.13
2023-02-25T14:43:30.588Z,4.33
2023-02-25T14:46:09.045Z,4.30
2023-02-25T14:48:45.800Z,2.67
2023-02-25T14:51:46.585Z,1.90
2023-02-25T14:55:11.510Z,4.63
2023-02-25T14:58:19.851Z,2.97
2023-02-25T15:01:19.328Z,3.10
2023-02-25T15:04:09.659Z,4.00
2023-02-25T15:06:55.550Z,2.43
2023-02-25T15:10:01.210Z,3.40
2023-02-25T15:12:56.696Z,4.37
2023-02-25T15:15:40.547Z,4.67
2023-02-25T15:18:29.193Z,3.23
2023-02-25T15:20:58.145Z,2.50
2023-02-25T15:23:50.298Z,2.30
2023-02-25T15:26:27.219Z,3.03
2023-02-25T15:28:56.602Z,4.90
2023-02-25T15:31:31.027Z,3.50
2023-02-25T15:34:33.973Z,4.67
2023-02-25T15:37:32.052Z,4.17
2023-02-25T15:40:03.142Z,2.93
2023-02-25T15:42:51.807Z,4.23
2023-02-25T15:45:41.197Z,5.37
2023-02-25T15:48:33.707Z,6.17
2023-02-25T15:51:10.366Z,5.80
2023-02-25T15:53:42.398Z,4.63
2023-02-25T15:56:47.535Z,3.43
2023-02-25T15:59:44.390Z,2.83
2023-02-25T16:02:41.131Z,3.30
2023-02-25T16:05:28.252Z,3.80
2023-02-25T16:08:14.288Z,4.00
2023-02-25T16:10:46.517Z,3.83
2023-02-25T16:13:18.427Z,3.77
2023-02-25T16:15:52.580Z,5.43
2023-02-25T16:18:29.867Z,4.60
2023-02-25T16:21:04.621Z,3.77
2023-02-25T16:23:35.343Z,4.03
2023-02-25T16:26:14.883Z,4.87
2023-02-25T16:28:54.224Z,2.50
2023-02-25T16:31:27.925Z,4.17
2023-02-25T16:34:06.414Z,2.70
2023-02-25T16:36:41.002Z,4.17
2023-02-25T16:39:16.858Z,2.00
2023-02-25T16:41:45.688Z,2.57
2023-02-25T16:44:20.356Z,2.70
2023-02-25T16:46:52.251Z,2.93
2023-02-25T16:49:25.306Z,2.37
2023-02-25T16:51:55.016Z,3.03
2023-02-25T16:54:29.670Z,8.83
2023-02-25T16:57:01.760Z,4.57
2023-02-25T16:59:33.724Z,3.57
2023-02-25T17:02:06.128Z,6.70
2023-02-25T17:04:37.023Z,9.60
2023-02-25T17:07:13.105Z,5.13
2023-02-25T17:09:47.777Z,6.90
2023-02-25T17:12:20.279Z,3.63
2023-02-25T17:14:51.412Z,4.07
2023-02-25T17:17:26.701Z,7.67
2023-02-25T17:19:56.785Z,5.50
2023-02-25T17:22:26.610Z,5.77
2023-02-25T17:24:58.835Z,2.83
2023-02-25T17:27:28.548Z,4.40
2023-02-25T17:29:57.068Z,5.37
2023-02-25T17:32:27.362Z,6.67
2023-02-25T17:34:59.022Z,4.90
2023-02-25T17:37:29.035Z,4.23
2023-02-25T17:40:00.637Z,7.07
2023-02-25T17:42:34.447Z,6.97
2023-02-25T17:45:05.405Z,5.97
2023-02-25T17:47:37.242Z,4.73
2023-02-25T17:50:22.978Z,5.80
2023-02-25T17:52:51.760Z,2.40
2023-02-25T17:55:27.465Z,3.73
2023-02-25T17:58:00.863Z,2.73
2023-02-25T18:00:32.081Z,5.10
2023-02-25T18:03:17.562Z,3.67
2023-02-25T18:05:52.374Z,4.67
2023-02-25T18:08:23.254Z,4.73
2023-02-25T18:11:03.024Z,6.73
2023-02-25T18:13:37.245Z,16.63
2023-02-25T18:16:40.141Z,3.67
2023-02-25T18:19:27.086Z,7.20
2023-02-25T18:21:56.222Z,4.33
2023-02-25T18:24:30.059Z,8.03
2023-02-25T18:27:09.750Z,2.97
2023-02-25T18:29:38.199Z,2.87
2023-02-25T18:32:06.800Z,3.83
2023-02-25T18:34:35.355Z,3.50
2023-02-25T18:37:04.083Z,4.77
2023-02-25T18:39:33.524Z,3.93
2023-02-25T18:42:03.382Z,1.83
2023-02-25T18:44:31.817Z,2.50
2023-02-25T18:47:00.249Z,4.10
2023-02-25T18:49:28.574Z,2.00
2023-02-25T18:51:57.005Z,3.87
2023-02-25T18:54:25.421Z,3.07
2023-02-25T18:56:53.851Z,3.57
2023-02-25T18:59:23.749Z,1.90
2023-02-25T19:01:52.240Z,2.47
2023-02-25T19:04:20.893Z,4.40
2023-02-25T19:06:50.054Z,3.20
2023-02-25T19:09:18.516Z,2.17
2023-02-25T19:11:47.212Z,1.43
2023-02-25T19:14:19.829Z,1.63
2023-02-25T19:16:49.696Z,4.00
2023-02-25T19:19:18.078Z,1.87
2023-02-25T19:21:47.789Z,3.77
2023-02-25T19:24:16.191Z,3.00
2023-02-25T19:26:45.974Z,1.90
2023-02-25T19:29:14.405Z,2.70
2023-02-25T19:31:43.976Z,3.97
2023-02-25T19:34:13.801Z,5.10
2023-02-25T19:36:42.273Z,1.70
2023-02-25T19:39:10.640Z,2.30
2023-02-25T19:41:39.088Z,1.77
2023-02-25T19:44:07.523Z,5.53
2023-02-25T19:46:36.050Z,2.10
2023-02-25T19:49:04.449Z,2.47
2023-02-25T19:51:34.180Z,4.10
2023-02-25T19:54:02.600Z,3.87
2023-02-25T19:56:30.949Z,3.70
2023-02-25T19:59:00.095Z,3.83
2023-02-25T20:01:28.897Z,2.77
2023-02-25T20:03:57.440Z,4.43
2023-02-25T20:06:26.508Z,3.30
2023-02-25T20:08:56.616Z,2.90
2023-02-25T20:11:25.363Z,3.97
2023-02-25T20:13:53.801Z,4.83
2023-02-25T20:16:24.317Z,4.33
2023-02-25T20:18:53.308Z,2.70
2023-02-25T20:21:22.500Z,6.60
2023-02-25T20:23:50.971Z,3.43
2023-02-25T20:26:24.292Z,2.37
2023-02-25T20:28:54.438Z,2.20
2023-02-25T20:31:23.334Z,2.60
2023-02-25T20:33:53.595Z,3.90
2023-02-25T20:36:25.529Z,5.60
2023-02-25T20:39:12.955Z,3.77
2023-02-25T20:41:44.914Z,2.40
2023-02-25T20:44:14.381Z,4.10
2023-02-25T20:46:44.252Z,5.23
2023-02-25T20:49:14.736Z,2.73
2023-02-25T20:51:44.923Z,2.37
2023-02-25T20:54:14.615Z,2.37
2023-02-25T20:56:45.048Z,2.90
2023-02-25T20:59:15.250Z,2.60
2023-02-25T21:01:44.153Z,3.43
2023-02-25T21:04:12.801Z,2.40
2023-02-25T21:06:41.306Z,3.30
2023-02-25T21:09:09.697Z,3.37
2023-02-25T21:11:38.150Z,5.73
2023-02-25T21:14:10.430Z,3.13
2023-02-25T21:16:39.737Z,3.17
2023-02-25T21:19:08.748Z,3.83
2023-02-25T21:21:38.154Z,2.47
2023-02-25T21:24:07.518Z,2.43
2023-02-25T21:26:39.376Z,2.83
2023-02-25T21:29:10.043Z,2.40
2023-02-25T21:31:38.859Z,2.30
2023-02-25T21:34:09.229Z,1.77
2023-02-25T21:36:38.386Z,1.80
2023-02-25T21:39:09.402Z,2.20
2023-02-25T21:41:44.383Z,2.83
2023-02-25T21:44:14.841Z,2.43
2023-02-25T21:46:43.252Z,1.97
2023-02-25T21:49:11.761Z,4.00
2023-02-25T21:51:40.424Z,2.33
2023-02-25T21:54:09.305Z,2.47
2023-02-25T21:56:37.765Z,3.37
2023-02-25T21:59:07.201Z,2.03
2023-02-25T22:01:40.585Z,3.57
2023-02-25T22:04:09.932Z,10.77
2023-02-25T22:06:38.872Z,7.67
2023-02-25T22:09:07.675Z,12.63
2023-02-25T22:11:37.734Z,8.57
2023-02-25T22:14:08.244Z,5.03
2023-02-25T22:16:39.403Z,2.80
2023-02-25T22:19:07.842Z,5.20
2023-02-25T22:21:37.233Z,4.17
2023-02-25T22:24:07.477Z,3.40
2023-02-25T22:26:37.477Z,2.43
2023-02-25T22:29:08.861Z,2.27
2023-02-25T22:31:38.830Z,5.73
2023-02-25T22:34:08.347Z,4.63
2023-02-25T22:36:36.970Z,5.23
2023-02-25T22:39:06.342Z,13.90
2023-02-25T22:41:34.819Z,7.73
2023-02-25T22:44:03.585Z,11.67
2023-02-25T22:46:33.718Z,10.23
2023-02-25T22:49:04.684Z,10.07
2023-02-25T22:51:35.496Z,5.57
2023-02-25T22:54:04.884Z,8.73
2023-02-25T22:56:33.271Z,7.23
2023-02-25T22:59:02.022Z,10.57
2023-02-25T23:01:31.115Z,5.70
2023-02-25T23:04:00.292Z,7.27
2023-02-25T23:06:42.794Z,7.87
2023-02-25T23:09:11.725Z,5.57
2023-02-25T23:11:42.299Z,7.27
2023-02-25T23:14:11.139Z,10.70
2023-02-25T23:16:41.691Z,10.30
2023-02-25T23:19:13.270Z,9.43
2023-02-25T23:21:43.248Z,7.40
2023-02-25T23:24:16.587Z,7.57
2023-02-25T23:26:45.934Z,7.53
2023-02-25T23:29:14.557Z,4.30
2023-02-25T23:31:45.495Z,4.27
2023-02-25T23:34:16.660Z,7.27
2023-02-25T23:36:47.462Z,4.73
2023-02-25T23:39:16.425Z,4.50
2023-02-25T23:41:45.037Z,4.67
2023-02-25T23:44:14.501Z,3.07
2023-02-25T23:46:45.196Z,3.10
2023-02-25T23:49:15.196Z,2.63
2023-02-25T23:51:45.176Z,2.40
2023-02-25T23:54:16.896Z,2.97
2023-02-25T23:56:45.659Z,2.00
2023-02-25T23:59:14.326Z,4.13
